Time;durP1;ratioP1;P1;durP2;ratioP2;P2;SDS_P1;SDS_P2;PMS_P1;PMS_P2;Temp;Humidity;BMP_temperature;BMP_pressure;BME280_temperature;BME280_humidity;BME280_pressure;Samples;Min_cycle;Max_cycle;Signal;HPM_P1;HPM_P2
2024/01/04 00:00:07;;;;;;;0.85;0.63;;;;;;;;;;5072793;28;20204;-69
2024/01/04 00:02:33;;;;;;;2.55;0.40;;;;;;;;;;5072816;28;20279;-69
2024/01/04 00:04:59;;;;;;;1.88;0.52;;;;;;;;;;5072665;28;20238;-69
2024/01/04 00:07:27;;;;;;;1.52;0.68;;;;;;;;;;5073079;28;20200;-69
2024/01/04 00:09:53;;;;;;;1.30;0.80;;;;;;;;;;5072783;28;20269;-69
2024/01/04 00:12:19;;;;;;;0.50;0.43;;;;;;;;;;5072346;28;20243;-69
2024/01/04 00:14:45;;;;;;;1.23;0.40;;;;;;;;;;5072667;28;20641;-69
2024/01/04 00:17:12;;;;;;;3.60;0.63;;;;;;;;;;5072568;28;20604;-69
2024/01/04 00:19:38;;;;;;;2.60;0.55;;;;;;;;;;5072754;28;20223;-69
2024/01/04 00:22:04;;;;;;;1.02;0.73;;;;;;;;;;5072433;28;20197;-69
2024/01/04 00:24:32;;;;;;;4.13;0.82;;;;;;;;;;5072749;28;20200;-69
2024/01/04 00:26:58;;;;;;;1.50;1.00;;;;;;;;;;5072122;28;20341;-69
2024/01/04 00:29:24;;;;;;;1.10;0.75;;;;;;;;;;5072671;28;20228;-69
2024/01/04 00:31:51;;;;;;;3.20;1.30;;;;;;;;;;5072140;28;20231;-69
2024/01/04 00:34:17;;;;;;;2.35;0.82;;;;;;;;;;5072324;28;20744;-69
2024/01/04 00:36:43;;;;;;;1.77;1.15;;;;;;;;;;5072191;28;20711;-69
2024/01/04 00:39:10;;;;;;;2.50;1.13;;;;;;;;;;5072568;28;20200;-69
2024/01/04 00:41:37;;;;;;;4.15;1.20;;;;;;;;;;5072208;28;20196;-69
2024/01/04 00:44:03;;;;;;;2.92;1.08;;;;;;;;;;5072444;28;20211;-69
2024/01/04 00:46:30;;;;;;;3.47;1.23;;;;;;;;;;5072251;28;20231;-69
2024/01/04 00:48:56;;;;;;;2.47;1.40;;;;;;;;;;5072414;28;20204;-69
2024/01/04 00:51:22;;;;;;;4.90;1.00;;;;;;;;;;5072264;28;20770;-69
2024/01/04 00:53:48;;;;;;;2.38;1.00;;;;;;;;;;5072365;28;20688;-69
2024/01/04 00:56:15;;;;;;;3.13;1.00;;;;;;;;;;5072699;28;20634;-69
2024/01/04 00:58:42;;;;;;;2.67;0.90;;;;;;;;;;5073016;28;20196;-69
2024/01/04 01:01:08;;;;;;;6.13;2.25;;;;;;;;;;5075398;28;20230;-69
2024/01/04 01:03:35;;;;;;;3.78;1.23;;;;;;;;;;5076289;28;20204;-69
2024/01/04 01:06:01;;;;;;;2.58;0.93;;;;;;;;;;5073362;28;20224;-69
2024/01/04 01:08:27;;;;;;;1.08;0.90;;;;;;;;;;5072274;28;20310;-69
2024/01/04 01:10:53;;;;;;;3.72;1.08;;;;;;;;;;5071935;28;20208;-69
2024/01/04 01:13:22;;;;;;;2.17;1.08;;;;;;;;;;5072305;28;20277;-69
2024/01/04 01:15:49;;;;;;;1.98;0.55;;;;;;;;;;5071881;28;20224;-70
2024/01/04 01:18:16;;;;;;;1.70;0.90;;;;;;;;;;5072086;28;20200;-69
2024/01/04 01:20:42;;;;;;;2.90;0.98;;;;;;;;;;5071931;28;20200;-69
2024/01/04 01:23:08;;;;;;;1.88;0.85;;;;;;;;;;5072160;28;20228;-69
2024/01/04 01:25:34;;;;;;;1.55;0.50;;;;;;;;;;5071854;28;20221;-69
2024/01/04 01:28:01;;;;;;;0.82;0.50;;;;;;;;;;5071933;28;20204;-69
2024/01/04 01:30:29;;;;;;;2.80;0.70;;;;;;;;;;5071620;28;20197;-70
2024/01/04 01:32:56;;;;;;;3.42;0.70;;;;;;;;;;5071900;28;20278;-70
2024/01/04 01:35:22;;;;;;;2.85;1.10;;;;;;;;;;5073525;28;20281;-71
2024/01/04 01:37:49;;;;;;;3.40;0.90;;;;;;;;;;5075751;28;20208;-70
2024/01/04 01:40:15;;;;;;;3.00;1.20;;;;;;;;;;5076049;28;20232;-71
2024/01/04 01:42:46;;;;;;;3.15;1.30;;;;;;;;;;5075601;28;20623;-71
2024/01/04 01:45:12;;;;;;;3.00;1.20;;;;;;;;;;5075361;28;20228;-69
2024/01/04 01:47:38;;;;;;;5.68;2.42;;;;;;;;;;5075651;28;20257;-69
2024/01/04 01:50:07;;;;;;;6.05;2.80;;;;;;;;;;5075343;28;20668;-70
2024/01/04 01:52:33;;;;;;;4.22;2.03;;;;;;;;;;5075541;28;20273;-70
2024/01/04 01:55:00;;;;;;;1.52;1.23;;;;;;;;;;5075194;28;20201;-70
2024/01/04 01:57:27;;;;;;;6.60;3.33;;;;;;;;;;5075846;28;20204;-70
2024/01/04 01:59:53;;;;;;;4.90;1.85;;;;;;;;;;5075613;28;20204;-70
2024/01/04 02:02:20;;;;;;;1.70;1.30;;;;;;;;;;5074984;28;20196;-70
2024/01/04 02:04:46;;;;;;;7.72;1.40;;;;;;;;;;5074778;28;20592;-70
2024/01/04 02:07:14;;;;;;;2.83;1.00;;;;;;;;;;5075162;28;20204;-70
2024/01/04 02:09:40;;;;;;;2.28;1.17;;;;;;;;;;5075163;28;20215;-70
2024/01/04 02:12:07;;;;;;;3.58;1.20;;;;;;;;;;5074970;28;20697;-70
2024/01/04 02:14:33;;;;;;;1.95;1.00;;;;;;;;;;5074758;28;20208;-70
2024/01/04 02:16:59;;;;;;;1.85;0.63;;;;;;;;;;5074735;28;20223;-70
2024/01/04 02:19:27;;;;;;;3.40;0.63;;;;;;;;;;5074734;28;20197;-71
2024/01/04 02:21:53;;;;;;;0.60;0.60;;;;;;;;;;5074570;28;20604;-69
2024/01/04 02:24:21;;;;;;;0.95;0.50;;;;;;;;;;5075012;28;20208;-69
2024/01/04 02:26:47;;;;;;;0.50;0.50;;;;;;;;;;5074088;28;20762;-70
2024/01/04 02:29:13;;;;;;;1.75;0.90;;;;;;;;;;5073869;28;20626;-70
2024/01/04 02:31:39;;;;;;;2.67;0.70;;;;;;;;;;5074160;28;20204;-70
2024/01/04 02:34:06;;;;;;;0.47;0.47;;;;;;;;;;5073755;28;20197;-70
2024/01/04 02:36:32;;;;;;;1.05;0.52;;;;;;;;;;5072675;28;20224;-70
2024/01/04 02:38:59;;;;;;;1.10;0.30;;;;;;;;;;5073095;28;20291;-70
2024/01/04 02:41:26;;;;;;;1.13;0.57;;;;;;;;;;5072708;28;20623;-72
2024/01/04 02:43:52;;;;;;;0.28;0.28;;;;;;;;;;5072465;28;20701;-73
2024/01/04 02:51:29;;;;;;;0.63;0.45;;;;;;;;;;5679085;22;20294;-70
2024/01/04 02:53:55;;;;;;;0.40;0.30;;;;;;;;;;5001549;28;20214;-70
2024/01/04 02:56:21;;;;;;;0.70;0.47;;;;;;;;;;4991602;28;20271;-70
2024/01/04 02:58:49;;;;;;;0.82;0.40;;;;;;;;;;4991417;28;20257;-70
2024/01/04 03:01:18;;;;;;;0.50;0.50;;;;;;;;;;4991157;28;20244;-70
2024/01/04 03:03:45;;;;;;;1.35;0.60;;;;;;;;;;4991445;28;20260;-70
2024/01/04 03:06:11;;;;;;;0.40;0.40;;;;;;;;;;4991194;28;20215;-70
2024/01/04 03:08:37;;;;;;;0.63;0.30;;;;;;;;;;4991646;28;20207;-70
2024/01/04 03:11:03;;;;;;;0.30;0.30;;;;;;;;;;4991236;28;20240;-70
2024/01/04 03:13:30;;;;;;;1.05;0.30;;;;;;;;;;4991367;28;20227;-69
2024/01/04 03:15:57;;;;;;;0.30;0.30;;;;;;;;;;4991398;28;20227;-69
2024/01/04 03:18:23;;;;;;;0.50;0.50;;;;;;;;;;4991689;28;20199;-69
2024/01/04 03:20:50;;;;;;;1.00;0.73;;;;;;;;;;4991164;28;20203;-69
2024/01/04 03:23:16;;;;;;;1.17;0.60;;;;;;;;;;4991327;28;20200;-69
2024/01/04 03:25:42;;;;;;;0.43;0.32;;;;;;;;;;4991001;28;20738;-69
2024/01/04 03:28:08;;;;;;;0.20;0.20;;;;;;;;;;4991352;28;20672;-69
2024/01/04 03:30:35;;;;;;;0.57;0.50;;;;;;;;;;4991979;28;20214;-69
2024/01/04 03:33:02;;;;;;;0.30;0.30;;;;;;;;;;4991161;28;20707;-69
2024/01/04 03:35:29;;;;;;;1.15;0.28;;;;;;;;;;4990900;28;20764;-69
2024/01/04 03:37:55;;;;;;;0.85;0.30;;;;;;;;;;4991410;28;20222;-68
2024/01/04 03:40:21;;;;;;;0.20;0.20;;;;;;;;;;4990989;28;20203;-68
2024/01/04 03:42:48;;;;;;;0.52;0.30;;;;;;;;;;4990818;28;20203;-69
2024/01/04 03:45:14;;;;;;;0.22;0.22;;;;;;;;;;4990221;28;20229;-69
2024/01/04 03:47:40;;;;;;;0.77;0.50;;;;;;;;;;4991138;28;20211;-69
2024/01/04 03:50:09;;;;;;;0.63;0.30;;;;;;;;;;4990575;28;20203;-69
2024/01/04 03:52:36;;;;;;;0.20;0.20;;;;;;;;;;4990598;28;20225;-69
2024/01/04 03:55:02;;;;;;;0.95;0.65;;;;;;;;;;4990625;28;20284;-69
2024/01/04 03:57:29;;;;;;;0.55;0.20;;;;;;;;;;4990103;28;20203;-69
2024/01/04 03:59:55;;;;;;;0.85;0.30;;;;;;;;;;4990393;28;20294;-69
2024/01/04 04:02:21;;;;;;;0.35;0.35;;;;;;;;;;4990420;28;20199;-69
2024/01/04 04:04:47;;;;;;;1.88;0.20;;;;;;;;;;4990535;28;20411;-69
2024/01/04 04:07:15;;;;;;;0.55;0.28;;;;;;;;;;4981476;28;20242;-69
2024/01/04 04:09:41;;;;;;;0.25;0.20;;;;;;;;;;4990470;28;20203;-69
2024/01/04 04:12:07;;;;;;;0.55;0.40;;;;;;;;;;4989708;28;20276;-70
2024/01/04 04:14:34;;;;;;;1.80;0.40;;;;;;;;;;4990167;28;20613;-69
2024/01/04 04:17:00;;;;;;;0.20;0.20;;;;;;;;;;4990326;28;20223;-69
2024/01/04 04:19:26;;;;;;;1.27;0.20;;;;;;;;;;4990467;28;20729;-69
2024/01/04 04:21:53;;;;;;;0.20;0.20;;;;;;;;;;4990454;28;20269;-69
2024/01/04 04:24:20;;;;;;;1.33;0.30;;;;;;;;;;4990552;28;20195;-69
2024/01/04 04:26:46;;;;;;;0.32;0.20;;;;;;;;;;4990099;28;20261;-69
2024/01/04 04:29:13;;;;;;;1.50;0.43;;;;;;;;;;4990254;28;20199;-69
2024/01/04 04:31:39;;;;;;;0.30;0.30;;;;;;;;;;4989939;28;20208;-69
2024/01/04 04:34:05;;;;;;;2.05;0.30;;;;;;;;;;4990331;28;20242;-69
2024/01/04 04:36:32;;;;;;;1.27;0.38;;;;;;;;;;4990224;28;20229;-69
2024/01/04 04:39:00;;;;;;;1.02;0.35;;;;;;;;;;4990179;28;20207;-69
2024/01/04 04:41:28;;;;;;;0.63;0.30;;;;;;;;;;4989682;28;20292;-69
2024/01/04 04:43:54;;;;;;;0.47;0.47;;;;;;;;;;4990158;28;20204;-69
2024/01/04 04:46:21;;;;;;;1.55;0.50;;;;;;;;;;4989775;28;20630;-69
2024/01/04 04:48:47;;;;;;;1.25;0.43;;;;;;;;;;4989655;28;20241;-69
2024/01/04 04:51:13;;;;;;;0.50;0.40;;;;;;;;;;4989856;28;20207;-69
2024/01/04 04:53:39;;;;;;;2.10;0.80;;;;;;;;;;4990041;28;20227;-69
2024/01/04 04:56:06;;;;;;;0.60;0.60;;;;;;;;;;4989795;28;20227;-69
2024/01/04 04:58:33;;;;;;;2.05;0.55;;;;;;;;;;4990045;28;20203;-69
2024/01/04 05:01:00;;;;;;;0.63;0.35;;;;;;;;;;4989818;28;20211;-69
2024/01/04 05:03:26;;;;;;;0.47;0.38;;;;;;;;;;4990203;28;20245;-70
2024/01/04 05:05:53;;;;;;;0.80;0.40;;;;;;;;;;4990082;28;20399;-70
2024/01/04 05:08:19;;;;;;;0.65;0.50;;;;;;;;;;4974248;28;20256;-69
2024/01/04 05:10:45;;;;;;;1.95;0.52;;;;;;;;;;4992386;28;20199;-69
2024/01/04 05:13:12;;;;;;;2.17;0.38;;;;;;;;;;4993426;28;20268;-69
2024/01/04 05:15:39;;;;;;;1.08;0.45;;;;;;;;;;5010411;28;20215;-69
2024/01/04 05:18:08;;;;;;;0.75;0.45;;;;;;;;;;5016698;28;20229;-69
2024/01/04 05:20:34;;;;;;;0.57;0.40;;;;;;;;;;5016349;28;20290;-69
2024/01/04 05:23:01;;;;;;;2.20;0.50;;;;;;;;;;5015241;28;20203;-69
2024/01/04 05:25:27;;;;;;;0.95;0.50;;;;;;;;;;5015476;28;20219;-69
2024/01/04 05:27:53;;;;;;;2.08;0.75;;;;;;;;;;4993391;28;20650;-69
2024/01/04 05:30:20;;;;;;;1.85;0.70;;;;;;;;;;4992769;28;20268;-69
2024/01/04 05:32:47;;;;;;;1.77;0.60;;;;;;;;;;4993679;28;20207;-71
2024/01/04 05:35:14;;;;;;;0.85;0.40;;;;;;;;;;4993093;28;20596;-70
2024/01/04 05:37:40;;;;;;;1.48;0.52;;;;;;;;;;4992990;28;20211;-70
2024/01/04 05:40:07;;;;;;;0.98;0.43;;;;;;;;;;4992976;28;20208;-70
2024/01/04 05:42:33;;;;;;;0.60;0.60;;;;;;;;;;4992974;28;20290;-70
2024/01/04 05:45:01;;;;;;;2.33;1.42;;;;;;;;;;4992760;28;20256;-70
2024/01/04 05:47:27;;;;;;;3.13;1.60;;;;;;;;;;4992841;28;20245;-70
2024/01/04 05:49:55;;;;;;;2.67;0.90;;;;;;;;;;4992686;28;20199;-70
2024/01/04 05:52:21;;;;;;;1.85;0.60;;;;;;;;;;4992613;28;20302;-70
2024/01/04 05:54:47;;;;;;;2.13;0.77;;;;;;;;;;4992810;28;20276;-70
2024/01/04 05:57:13;;;;;;;0.93;0.75;;;;;;;;;;4992673;28;20203;-70
2024/01/04 05:59:39;;;;;;;0.77;0.50;;;;;;;;;;4996599;28;20256;-70
2024/01/04 06:02:05;;;;;;;1.27;0.50;;;;;;;;;;4996497;28;20207;-70
2024/01/04 06:04:32;;;;;;;0.82;0.50;;;;;;;;;;4992484;28;20252;-70
2024/01/04 06:07:00;;;;;;;2.03;0.52;;;;;;;;;;4992719;28;20223;-70
2024/01/04 06:09:26;;;;;;;1.30;0.45;;;;;;;;;;4992559;28;20571;-70
2024/01/04 06:11:53;;;;;;;1.55;0.55;;;;;;;;;;4992266;28;20602;-70
2024/01/04 06:14:19;;;;;;;1.20;0.45;;;;;;;;;;4992439;28;20223;-70
2024/01/04 06:16:45;;;;;;;0.38;0.30;;;;;;;;;;4992521;28;20310;-70
2024/01/04 06:19:11;;;;;;;1.58;0.60;;;;;;;;;;4995371;28;20236;-70
2024/01/04 06:21:38;;;;;;;2.15;0.38;;;;;;;;;;5012893;28;20203;-70
2024/01/04 06:24:06;;;;;;;0.32;0.32;;;;;;;;;;5012911;28;20217;-70
2024/01/04 06:26:32;;;;;;;0.68;0.47;;;;;;;;;;5010880;28;20229;-70
2024/01/04 06:28:58;;;;;;;2.15;0.60;;;;;;;;;;5011893;28;20203;-70
2024/01/04 06:31:24;;;;;;;1.30;0.60;;;;;;;;;;5003563;28;20609;-70
2024/01/04 06:33:51;;;;;;;1.70;0.60;;;;;;;;;;5010602;28;20227;-70
2024/01/04 06:36:17;;;;;;;2.05;0.65;;;;;;;;;;5015025;28;20223;-70
2024/01/04 06:38:43;;;;;;;2.20;0.80;;;;;;;;;;5015214;28;20203;-70
2024/01/04 06:41:12;;;;;;;6.35;1.20;;;;;;;;;;5002950;28;20210;-70
2024/01/04 06:43:38;;;;;;;0.90;0.50;;;;;;;;;;5008438;28;20214;-70
2024/01/04 06:46:04;;;;;;;3.40;0.60;;;;;;;;;;5013651;28;20223;-70
2024/01/04 06:48:30;;;;;;;2.63;0.85;;;;;;;;;;5014510;28;20260;-70
2024/01/04 06:50:56;;;;;;;2.60;0.65;;;;;;;;;;5014515;28;20297;-70
2024/01/04 06:53:23;;;;;;;2.67;0.65;;;;;;;;;;5014860;28;20226;-70
2024/01/04 06:55:49;;;;;;;2.00;0.90;;;;;;;;;;5003967;28;20277;-64
2024/01/04 06:58:16;;;;;;;1.02;0.60;;;;;;;;;;4991452;28;20257;-64
2024/01/04 07:00:43;;;;;;;2.92;0.70;;;;;;;;;;4991421;28;20257;-63
2024/01/04 07:03:09;;;;;;;3.30;0.75;;;;;;;;;;4991794;28;20253;-62
2024/01/04 07:05:35;;;;;;;3.22;0.70;;;;;;;;;;4997215;28;20223;-63
2024/01/04 07:08:01;;;;;;;2.75;0.90;;;;;;;;;;4995252;28;20203;-61
2024/01/04 07:10:28;;;;;;;2.35;0.57;;;;;;;;;;4991197;28;20211;-62
2024/01/04 07:12:54;;;;;;;2.70;0.80;;;;;;;;;;4994215;28;20208;-63
2024/01/04 07:15:22;;;;;;;2.28;1.30;;;;;;;;;;4994389;28;20727;-63
2024/01/04 07:17:48;;;;;;;3.13;0.80;;;;;;;;;;4991638;28;20620;-63
2024/01/04 07:20:15;;;;;;;1.33;0.60;;;;;;;;;;4990736;28;20667;-63
2024/01/04 07:22:41;;;;;;;4.88;0.73;;;;;;;;;;4972103;28;20211;-64
2024/01/04 07:25:08;;;;;;;1.90;0.68;;;;;;;;;;4970023;28;20219;-64
2024/01/04 07:27:34;;;;;;;4.32;0.90;;;;;;;;;;4963356;28;20211;-64
2024/01/04 07:30:00;;;;;;;5.22;0.60;;;;;;;;;;4943666;29;20243;-62
2024/01/04 07:32:28;;;;;;;2.80;0.57;;;;;;;;;;4950816;28;20211;-63
2024/01/04 07:34:54;;;;;;;3.63;0.57;;;;;;;;;;5048263;28;20220;-63
2024/01/04 07:37:21;;;;;;;1.48;0.60;;;;;;;;;;5064504;28;20250;-62
2024/01/04 07:39:47;;;;;;;2.90;0.75;;;;;;;;;;5065162;28;20266;-62
2024/01/04 07:42:13;;;;;;;1.60;0.50;;;;;;;;;;5066511;28;20258;-63
2024/01/04 07:44:39;;;;;;;2.17;1.05;;;;;;;;;;5066877;28;20208;-63
2024/01/04 07:47:07;;;;;;;1.85;0.80;;;;;;;;;;5066644;28;20224;-64
2024/01/04 07:49:36;;;;;;;3.10;0.82;;;;;;;;;;5066596;28;20211;-64
2024/01/04 07:52:02;;;;;;;2.65;0.70;;;;;;;;;;5066361;28;20269;-62
2024/01/04 07:54:28;;;;;;;2.10;0.70;;;;;;;;;;5066512;28;20250;-63
2024/01/04 07:56:54;;;;;;;1.67;0.73;;;;;;;;;;5066329;28;20385;-63
2024/01/04 07:59:22;;;;;;;2.85;0.80;;;;;;;;;;5066523;28;20216;-66
2024/01/04 08:01:49;;;;;;;1.58;0.73;;;;;;;;;;5066428;28;20668;-61
2024/01/04 08:04:15;;;;;;;1.85;0.60;;;;;;;;;;5066360;28;20743;-63
2024/01/04 08:06:42;;;;;;;1.85;0.70;;;;;;;;;;5066376;28;20293;-62
2024/01/04 08:09:11;;;;;;;2.17;0.65;;;;;;;;;;5066366;28;20212;-62
2024/01/04 08:11:38;;;;;;;1.63;0.68;;;;;;;;;;5066099;28;20236;-61
2024/01/04 08:14:04;;;;;;;5.13;1.05;;;;;;;;;;5066346;28;20235;-61
2024/01/04 08:16:30;;;;;;;2.42;1.05;;;;;;;;;;5066092;28;20278;-63
2024/01/04 08:18:56;;;;;;;1.88;0.90;;;;;;;;;;5066330;28;20216;-63
2024/01/04 08:21:23;;;;;;;8.88;4.40;;;;;;;;;;5065889;28;20345;-63
2024/01/04 08:23:51;;;;;;;7.38;2.20;;;;;;;;;;5066017;28;20201;-62
2024/01/04 08:26:17;;;;;;;2.67;2.22;;;;;;;;;;5066192;28;20216;-63
2024/01/04 08:28:43;;;;;;;4.88;1.30;;;;;;;;;;5066584;28;20208;-62
2024/01/04 08:31:10;;;;;;;1.60;1.42;;;;;;;;;;5066302;28;20289;-62
2024/01/04 08:33:37;;;;;;;3.78;1.80;;;;;;;;;;5040956;28;20211;-61
2024/01/04 08:36:03;;;;;;;1.15;0.82;;;;;;;;;;4960487;28;20249;-62
2024/01/04 08:38:30;;;;;;;3.60;1.00;;;;;;;;;;4979905;28;20691;-64
2024/01/04 08:40:58;;;;;;;4.00;1.00;;;;;;;;;;5065921;28;20302;-64
2024/01/04 08:43:24;;;;;;;3.55;1.10;;;;;;;;;;5066061;28;20205;-63
2024/01/04 08:45:50;;;;;;;1.52;0.80;;;;;;;;;;5016070;28;21174;-65
2024/01/04 08:48:17;;;;;;;1.33;0.70;;;;;;;;;;4962606;28;20294;-62
2024/01/04 08:50:43;;;;;;;1.52;0.85;;;;;;;;;;4962505;28;20281;-63
2024/01/04 08:53:09;;;;;;;3.45;1.00;;;;;;;;;;4962269;28;20594;-63
2024/01/04 08:55:35;;;;;;;2.33;1.25;;;;;;;;;;4962287;28;20246;-64
2024/01/04 08:58:03;;;;;;;2.25;0.88;;;;;;;;;;4963395;28;20216;-63
2024/01/04 09:00:30;;;;;;;2.35;0.70;;;;;;;;;;4962594;28;20227;-64
2024/01/04 09:02:56;;;;;;;1.80;0.90;;;;;;;;;;4963283;28;20207;-64
2024/01/04 09:05:22;;;;;;;1.55;0.50;;;;;;;;;;4963138;28;20224;-64
2024/01/04 09:07:49;;;;;;;1.40;0.90;;;;;;;;;;4963044;28;20264;-64
2024/01/04 09:10:15;;;;;;;3.40;0.70;;;;;;;;;;4962769;28;20944;-64
2024/01/04 09:12:42;;;;;;;3.95;0.73;;;;;;;;;;4963142;28;20277;-64
2024/01/04 09:15:10;;;;;;;3.72;0.60;;;;;;;;;;4962657;28;20240;-64
2024/01/04 09:17:36;;;;;;;4.72;1.30;;;;;;;;;;4963503;28;20220;-64
2024/01/04 09:20:04;;;;;;;2.50;0.70;;;;;;;;;;4962495;28;20216;-63
2024/01/04 09:22:30;;;;;;;2.78;0.80;;;;;;;;;;4962764;28;20273;-63
2024/01/04 09:24:56;;;;;;;0.90;0.77;;;;;;;;;;4958431;28;20219;-63
2024/01/04 09:27:23;;;;;;;2.08;0.93;;;;;;;;;;5020729;28;20260;-62
2024/01/04 09:29:50;;;;;;;3.78;0.85;;;;;;;;;;4961642;28;20357;-63
2024/01/04 09:32:18;;;;;;;3.85;0.70;;;;;;;;;;4961549;28;20212;-62
2024/01/04 09:34:44;;;;;;;2.60;0.80;;;;;;;;;;4961416;28;20232;-63
2024/01/04 09:37:11;;;;;;;3.08;0.65;;;;;;;;;;4961274;28;20211;-61
2024/01/04 09:39:39;;;;;;;1.88;0.63;;;;;;;;;;4960830;28;20220;-64
2024/01/04 09:42:06;;;;;;;1.88;0.70;;;;;;;;;;4961367;28;20357;-63
2024/01/04 09:44:33;;;;;;;2.08;0.63;;;;;;;;;;4960949;28;20688;-66
2024/01/04 09:47:02;;;;;;;1.27;0.63;;;;;;;;;;4960504;28;20364;-64
2024/01/04 09:49:30;;;;;;;2.92;0.50;;;;;;;;;;4961025;28;20277;-64
2024/01/04 09:51:57;;;;;;;4.22;0.63;;;;;;;;;;4960612;28;20216;-63
2024/01/04 09:54:24;;;;;;;0.60;0.60;;;;;;;;;;4959811;28;20740;-63
2024/01/04 09:56:51;;;;;;;1.60;0.60;;;;;;;;;;4961336;28;20808;-63
2024/01/04 09:59:17;;;;;;;2.58;0.70;;;;;;;;;;4963078;28;20707;-63
2024/01/04 10:01:43;;;;;;;0.70;0.55;;;;;;;;;;4962961;28;20246;-63
2024/01/04 10:04:11;;;;;;;2.50;0.55;;;;;;;;;;4963438;28;20307;-63
2024/01/04 10:06:39;;;;;;;2.72;0.70;;;;;;;;;;4963277;28;20234;-63
2024/01/04 10:09:14;;;;;;;1.70;0.70;;;;;;;;;;4963680;28;20208;-64
2024/01/04 10:11:44;;;;;;;1.25;0.65;;;;;;;;;;4963931;28;20219;-63
2024/01/04 10:14:11;;;;;;;3.75;0.73;;;;;;;;;;4963857;28;20216;-63
2024/01/04 10:16:37;;;;;;;3.80;0.70;;;;;;;;;;4964595;28;20278;-63
2024/01/04 10:19:03;;;;;;;3.22;0.80;;;;;;;;;;4963777;28;20208;-62
2024/01/04 10:21:31;;;;;;;1.30;0.88;;;;;;;;;;4964137;28;20211;-63
2024/01/04 10:23:59;;;;;;;1.95;0.80;;;;;;;;;;4964162;28;20269;-63
2024/01/04 10:26:26;;;;;;;2.78;1.10;;;;;;;;;;4964253;28;20840;-63
2024/01/04 10:28:54;;;;;;;4.53;0.93;;;;;;;;;;4964150;28;20243;-63
2024/01/04 10:31:21;;;;;;;2.92;1.20;;;;;;;;;;4963278;28;20749;-63
2024/01/04 10:33:47;;;;;;;4.55;0.98;;;;;;;;;;4963531;28;20239;-63
2024/01/04 10:36:13;;;;;;;4.32;0.80;;;;;;;;;;4963203;28;20231;-63
2024/01/04 10:38:40;;;;;;;1.92;0.65;;;;;;;;;;4963754;28;20646;-63
2024/01/04 10:41:07;;;;;;;4.22;0.90;;;;;;;;;;4963102;28;20208;-63
2024/01/04 10:43:34;;;;;;;2.90;0.90;;;;;;;;;;4963436;28;20606;-63
2024/01/04 10:46:05;;;;;;;6.93;1.10;;;;;;;;;;4962772;28;20311;-63
2024/01/04 10:48:31;;;;;;;2.92;0.70;;;;;;;;;;4962754;28;20220;-63
2024/01/04 10:51:01;;;;;;;3.10;0.98;;;;;;;;;;4962791;28;20692;-63
2024/01/04 10:53:30;;;;;;;2.80;1.00;;;;;;;;;;4963500;28;20245;-63
2024/01/04 10:55:57;;;;;;;1.42;0.63;;;;;;;;;;4962922;28;20244;-63
2024/01/04 10:58:24;;;;;;;2.53;0.80;;;;;;;;;;4962936;28;20211;-63
2024/01/04 11:00:51;;;;;;;2.47;0.60;;;;;;;;;;4963388;28;20219;-63
2024/01/04 11:03:18;;;;;;;5.25;1.02;;;;;;;;;;4963787;28;20274;-63
2024/01/04 11:05:44;;;;;;;2.47;0.73;;;;;;;;;;4963167;28;20547;-64
2024/01/04 11:08:11;;;;;;;1.17;0.60;;;;;;;;;;4962427;28;20211;-64
2024/01/04 11:10:40;;;;;;;3.75;0.90;;;;;;;;;;4963280;28;20207;-64
2024/01/04 11:13:06;;;;;;;1.50;1.05;;;;;;;;;;4964344;28;20220;-64
2024/01/04 11:15:33;;;;;;;4.03;1.02;;;;;;;;;;4963673;28;20228;-64
2024/01/04 11:18:08;;;;;;;2.17;1.40;;;;;;;;;;4965422;28;20204;-64
2024/01/04 11:20:42;;;;;;;3.28;0.80;;;;;;;;;;4963790;28;20222;-64
2024/01/04 11:23:15;;;;;;;5.63;1.05;;;;;;;;;;4963657;28;20215;-64
2024/01/04 11:25:52;;;;;;;2.72;1.10;;;;;;;;;;4961826;28;20351;-63
2024/01/04 11:28:19;;;;;;;3.10;1.10;;;;;;;;;;4988633;28;20196;-61
2024/01/04 11:30:51;;;;;;;3.70;0.88;;;;;;;;;;4961048;28;20839;-61
2024/01/04 11:33:19;;;;;;;1.92;0.80;;;;;;;;;;4961748;28;20216;-62
2024/01/04 11:35:48;;;;;;;3.13;0.95;;;;;;;;;;4998433;28;20590;-65
2024/01/04 11:38:22;;;;;;;3.78;1.00;;;;;;;;;;4961689;28;20673;-65
2024/01/04 11:40:50;;;;;;;1.02;0.88;;;;;;;;;;4961573;28;20219;-64
2024/01/04 11:43:16;;;;;;;5.30;1.00;;;;;;;;;;4962723;28;20208;-63
2024/01/04 11:45:44;;;;;;;5.43;0.80;;;;;;;;;;4979294;28;20219;-64
2024/01/04 11:48:11;;;;;;;1.15;1.00;;;;;;;;;;4962326;28;20207;-65
2024/01/04 11:50:46;;;;;;;1.30;0.75;;;;;;;;;;4962009;28;20216;-64
2024/01/04 11:53:13;;;;;;;3.00;0.85;;;;;;;;;;4963714;28;20272;-64
2024/01/04 11:55:41;;;;;;;2.33;1.10;;;;;;;;;;4951065;28;20882;-63
2024/01/04 11:58:09;;;;;;;3.72;1.17;;;;;;;;;;4962684;28;20261;-63
2024/01/04 12:00:36;;;;;;;4.90;0.88;;;;;;;;;;4962421;28;20223;-64
2024/01/04 12:03:02;;;;;;;2.47;1.10;;;;;;;;;;4962361;28;20330;-65
2024/01/04 12:05:30;;;;;;;2.83;0.90;;;;;;;;;;4961568;28;20289;-63
2024/01/04 12:07:56;;;;;;;3.70;1.30;;;;;;;;;;4962393;28;20212;-63
2024/01/04 12:10:22;;;;;;;3.50;0.90;;;;;;;;;;4981107;28;20196;-65
2024/01/04 12:12:49;;;;;;;2.25;0.80;;;;;;;;;;4962735;28;20207;-65
2024/01/04 12:15:19;;;;;;;2.85;1.00;;;;;;;;;;4961659;28;20620;-63
2024/01/04 12:17:45;;;;;;;3.67;1.05;;;;;;;;;;4988617;28;20232;-63
2024/01/04 12:20:12;;;;;;;3.25;1.00;;;;;;;;;;4985213;28;20213;-64
2024/01/04 12:22:40;;;;;;;2.05;0.70;;;;;;;;;;4970456;28;20235;-65
2024/01/04 12:25:07;;;;;;;0.75;0.68;;;;;;;;;;4966542;28;20224;-65
2024/01/04 12:27:36;;;;;;;7.40;0.85;;;;;;;;;;4967029;28;20689;-64
2024/01/04 12:30:02;;;;;;;3.50;1.00;;;;;;;;;;4966466;28;20746;-64
2024/01/04 12:32:29;;;;;;;2.55;0.55;;;;;;;;;;4967077;28;20265;-64
2024/01/04 12:34:56;;;;;;;3.03;0.60;;;;;;;;;;4966311;28;20292;-64
2024/01/04 12:37:22;;;;;;;3.35;1.75;;;;;;;;;;4967119;28;20204;-64
2024/01/04 12:39:50;;;;;;;2.25;0.75;;;;;;;;;;4966710;28;20208;-65
2024/01/04 12:42:16;;;;;;;2.58;0.90;;;;;;;;;;4961251;28;20204;-64
2024/01/04 12:44:43;;;;;;;2.22;0.90;;;;;;;;;;4964033;28;20208;-64
2024/01/04 12:47:11;;;;;;;3.85;0.80;;;;;;;;;;4965784;28;20215;-65
2024/01/04 12:49:40;;;;;;;4.97;0.82;;;;;;;;;;4966058;28;20208;-65
2024/01/04 12:52:10;;;;;;;1.55;0.57;;;;;;;;;;4965959;28;20223;-66
2024/01/04 12:54:37;;;;;;;1.15;0.70;;;;;;;;;;4965481;28;20214;-64
2024/01/04 12:57:04;;;;;;;3.28;0.70;;;;;;;;;;4965908;28;20231;-64
2024/01/04 12:59:31;;;;;;;1.08;0.70;;;;;;;;;;4966212;28;20753;-63
2024/01/04 13:01:57;;;;;;;1.17;0.65;;;;;;;;;;4966086;28;20587;-65
2024/01/04 13:04:23;;;;;;;3.53;0.80;;;;;;;;;;4966355;28;20204;-65
2024/01/04 13:06:50;;;;;;;2.17;0.75;;;;;;;;;;4965750;28;20227;-64
2024/01/04 13:09:17;;;;;;;1.55;0.52;;;;;;;;;;4965229;28;20204;-64
2024/01/04 13:11:44;;;;;;;2.28;0.50;;;;;;;;;;5020906;28;20706;-65
2024/01/04 13:14:12;;;;;;;2.42;0.70;;;;;;;;;;4967385;28;20273;-65
2024/01/04 13:16:38;;;;;;;2.60;0.65;;;;;;;;;;4962795;28;20219;-65
2024/01/04 13:19:03;;;;;;;1.45;0.68;;;;;;;;;;4961408;28;20260;-65
2024/01/04 13:21:29;;;;;;;0.60;0.60;;;;;;;;;;4961418;28;20203;-65
2024/01/04 13:23:56;;;;;;;4.22;0.60;;;;;;;;;;4961804;28;20219;-64
2024/01/04 13:26:22;;;;;;;1.00;0.65;;;;;;;;;;4960937;28;20232;-64
2024/01/04 13:28:49;;;;;;;2.15;0.70;;;;;;;;;;4961319;28;20214;-64
2024/01/04 13:31:16;;;;;;;2.88;0.80;;;;;;;;;;4962399;28;20217;-64
2024/01/04 13:33:43;;;;;;;2.25;0.60;;;;;;;;;;4965152;28;20219;-63
2024/01/04 13:36:09;;;;;;;0.98;0.52;;;;;;;;;;4964303;28;20269;-63
2024/01/04 13:38:35;;;;;;;1.95;0.60;;;;;;;;;;4964121;28;20220;-63
2024/01/04 13:41:02;;;;;;;2.20;0.77;;;;;;;;;;4963900;28;20264;-64
2024/01/04 13:43:28;;;;;;;1.75;0.80;;;;;;;;;;4964254;28;20269;-63
2024/01/04 13:45:54;;;;;;;1.40;0.73;;;;;;;;;;4963453;28;20235;-63
2024/01/04 13:48:22;;;;;;;2.75;0.60;;;;;;;;;;4964433;28;20763;-64
2024/01/04 13:50:48;;;;;;;1.58;0.68;;;;;;;;;;4963706;28;20223;-63
2024/01/04 13:53:14;;;;;;;1.83;0.73;;;;;;;;;;4963366;28;20269;-64
2024/01/04 13:55:41;;;;;;;2.40;0.90;;;;;;;;;;4962919;28;20240;-64
2024/01/04 13:58:07;;;;;;;2.88;0.70;;;;;;;;;;4964008;28;20215;-63
2024/01/04 14:00:34;;;;;;;4.47;0.70;;;;;;;;;;4999959;28;20258;-63
2024/01/04 14:03:00;;;;;;;3.35;0.80;;;;;;;;;;4964624;28;20218;-64
2024/01/04 14:05:28;;;;;;;1.73;0.70;;;;;;;;;;4964814;28;20285;-64
2024/01/04 14:07:54;;;;;;;2.05;0.80;;;;;;;;;;4964827;28;20219;-64
2024/01/04 14:10:20;;;;;;;6.93;1.05;;;;;;;;;;4964775;28;20269;-64
2024/01/04 14:12:48;;;;;;;3.65;0.75;;;;;;;;;;4964856;28;20215;-64
2024/01/04 14:15:14;;;;;;;3.33;0.82;;;;;;;;;;4963414;28;20739;-63
2024/01/04 14:17:40;;;;;;;0.90;0.60;;;;;;;;;;4964230;28;20311;-65
2024/01/04 14:20:07;;;;;;;3.55;1.05;;;;;;;;;;4961317;28;20925;-64
2024/01/04 14:22:35;;;;;;;2.33;0.85;;;;;;;;;;4962303;28;20951;-64
2024/01/04 14:25:01;;;;;;;3.95;0.90;;;;;;;;;;4961937;28;20724;-63
2024/01/04 14:27:27;;;;;;;4.43;0.90;;;;;;;;;;4962188;28;20208;-63
2024/01/04 14:29:54;;;;;;;1.75;0.77;;;;;;;;;;4961919;28;20289;-63
2024/01/04 14:32:20;;;;;;;1.75;0.60;;;;;;;;;;4963526;28;20212;-66
2024/01/04 14:34:46;;;;;;;5.57;1.20;;;;;;;;;;4963977;28;20208;-64
2024/01/04 14:37:12;;;;;;;1.08;0.75;;;;;;;;;;4963504;28;20337;-64
2024/01/04 14:39:52;;;;;;;1.75;0.75;;;;;;;;;;4966017;28;20208;-63
2024/01/04 14:42:19;;;;;;;2.92;0.90;;;;;;;;;;4963469;28;20586;-63
2024/01/04 14:44:45;;;;;;;0.63;0.50;;;;;;;;;;4962750;28;20270;-63